EW5408 Tampa FL US current weather conditions

sailwx.info

Wind from 030

Air temperature 10.6° C
Dewpoint 6.5° C

Last reported at 2018-Dec-12 00:01 UTC.
Time now 2018-Dec-12 04:03 UTC

Location: N 28°09' W 082°17'.
View on Google Maps.

See reports from other nearby stations

  
Tides and Currents Weather Stations Pressure Air Temp Water Temp Dewpoint Dewpoint Depression Visibility Wind Speed Wind Dir Waves Ship Positions
date/time (UTC)wind fromknots sea level pressurealtimeterstation pressurevisibilityair tempwater tempwave heightnotes
2018-Dec-12 00:01 030 10.6
2018-Dec-11 20:16 360 17.2
2018-Dec-11 15:31 186 10.6
2018-Dec-11 12:31 001 7.2
2018-Dec-11 10:46 040 7.2
2018-Dec-11 06:46 124 6.7
2018-Dec-11 06:30 124 6.7
2018-Dec-11 06:18 124 6.7
2018-Dec-11 06:00 124 6.7
2018-Dec-11 05:47 124 6.7
2018-Dec-11 05:30 124 6.1
2018-Dec-11 05:16 124 6.1
2018-Dec-11 05:01 124 6.1
2018-Dec-11 03:16 124 7.2
2018-Dec-11 02:00 124 8.3
2018-Dec-10 17:47 360 14.4
2018-Dec-10 14:16 002 12.8
2018-Dec-10 13:01 049 12.8
2018-Dec-10 10:01 360 13.3
2018-Dec-10 06:45 360 16.1
2018-Dec-10 06:31 360 16.1
2018-Dec-10 06:15 015 16.7
2018-Dec-10 05:46 360 16.7
2018-Dec-10 05:30 023 16.7
2018-Dec-10 05:16 360 17.2
2018-Dec-10 05:00 030 0 gusting 4 17.8